createdAt,value
2022-08-17T00:03:42.622Z,96952.63
2022-08-17T00:13:49.191Z,96953.38
2022-08-17T00:23:51.315Z,96959.22
2022-08-17T00:33:53.224Z,96954.09
2022-08-17T00:44:01.898Z,96945.25
2022-08-17T00:54:14.249Z,96947.03
2022-08-17T01:04:18.108Z,96936.44
2022-08-17T01:14:21.598Z,96936.66
2022-08-17T01:24:23.646Z,96934.66
2022-08-17T01:34:36.820Z,96932.31
2022-08-17T01:44:45.115Z,96934.25
2022-08-17T01:54:49.161Z,96938.19
2022-08-17T02:04:51.735Z,96925.41
2022-08-17T02:14:53.262Z,96920.59
2022-08-17T02:25:00.815Z,96912.97
2022-08-17T02:35:05.459Z,96915.06
2022-08-17T02:45:11.179Z,96915.59
2022-08-17T02:55:25.078Z,96902.19
2022-08-17T03:05:29.505Z,96905.69
2022-08-17T03:15:33.634Z,96904.56
2022-08-17T03:25:38.716Z,96899.50
2022-08-17T03:35:41.383Z,96900.66
2022-08-17T03:46:02.027Z,96906.78
2022-08-17T03:56:24.339Z,96913.25
2022-08-17T04:06:25.816Z,96922.75
2022-08-17T04:16:27.488Z,96935.28
2022-08-17T04:26:52.276Z,96930.41
2022-08-17T04:36:52.583Z,96930.63
2022-08-17T04:46:54.448Z,96924.59
2022-08-17T04:56:55.975Z,96947.03
2022-08-17T05:06:57.616Z,96963.03
2022-08-17T05:16:59.138Z,96966.50
2022-08-17T05:27:06.314Z,96951.72
2022-08-17T05:37:08.246Z,96953.81
2022-08-17T05:47:09.753Z,96961.53
2022-08-17T05:57:26.857Z,96950.47
2022-08-17T06:07:47.874Z,96954.25
2022-08-17T06:17:54.630Z,96960.06
2022-08-17T06:28:02.739Z,96964.84
2022-08-17T06:38:37.119Z,96963.53
2022-08-17T06:48:47.175Z,96959.31
2022-08-17T06:58:50.117Z,96946.59
2022-08-17T07:09:02.753Z,96951.38
2022-08-17T07:19:07.318Z,96961.75
2022-08-17T07:29:17.772Z,96964.28
2022-08-17T07:39:27.939Z,96949.34
2022-08-17T07:49:37.055Z,96957.19
2022-08-17T08:00:03.283Z,96961.97
2022-08-17T08:10:29.200Z,96957.16
2022-08-17T08:20:52.042Z,96971.38
2022-08-17T08:31:42.094Z,96964.63
2022-08-17T08:41:57.022Z,96957.75
2022-08-17T08:52:01.303Z,96944.69
2022-08-17T09:02:35.117Z,96927.81
2022-08-17T09:12:44.592Z,96924.06
2022-08-17T09:22:53.130Z,96912.97
2022-08-17T09:32:59.849Z,96897.66
2022-08-17T09:43:17.334Z,96889.38
2022-08-17T09:53:19.255Z,96904.50
2022-08-17T10:03:35.398Z,96889.34
2022-08-17T10:13:53.509Z,96892.06
2022-08-17T10:24:24.405Z,96883.41
2022-08-17T10:34:44.321Z,96871.16
2022-08-17T10:44:56.267Z,96873.69
2022-08-17T10:54:58.390Z,96866.41
2022-08-17T11:05:00.412Z,96873.00
2022-08-17T11:15:33.430Z,96889.50
2022-08-17T11:25:47.219Z,96889.69
2022-08-17T11:35:53.622Z,96891.84
2022-08-17T11:46:02.340Z,96881.50
2022-08-17T11:56:09.517Z,96875.66
2022-08-17T12:06:33.367Z,96887.13
2022-08-17T12:16:35.145Z,96884.16
2022-08-17T12:26:37.714Z,96897.34
2022-08-17T12:36:40.220Z,96880.13
2022-08-17T12:47:21.951Z,96876.41
2022-08-17T12:57:26.750Z,96860.38
2022-08-17T13:07:42.480Z,96859.44
2022-08-17T13:17:57.311Z,96845.47
2022-08-17T13:28:00.449Z,96846.13
2022-08-17T13:38:14.847Z,96843.41
2022-08-17T13:48:16.659Z,96831.75
2022-08-17T13:58:40.644Z,96818.66
2022-08-17T14:08:42.193Z,96811.78
2022-08-17T14:18:56.166Z,96816.53
2022-08-17T14:28:58.770Z,96806.66
2022-08-17T14:39:02.048Z,96788.94
2022-08-17T14:49:03.967Z,96776.66
2022-08-17T14:59:06.035Z,96753.81
2022-08-17T15:09:07.531Z,96753.50
2022-08-17T15:19:09.034Z,96745.78
2022-08-17T15:29:10.803Z,96762.03
2022-08-17T15:39:12.337Z,96768.66
2022-08-17T15:49:13.801Z,96767.50
2022-08-17T15:59:15.373Z,96775.44
2022-08-17T16:09:16.844Z,96778.28
2022-08-17T16:19:18.692Z,96778.97
2022-08-17T16:29:21.357Z,96767.53
2022-08-17T16:39:28.852Z,96783.25
2022-08-17T16:49:37.249Z,96773.28
2022-08-17T16:59:43.605Z,96760.56
2022-08-17T17:09:48.940Z,96760.75
2022-08-17T17:20:00.709Z,96767.13
2022-08-17T17:30:20.693Z,96758.53
2022-08-17T17:40:37.472Z,96756.19
2022-08-17T17:51:04.016Z,96752.94
2022-08-17T18:01:22.051Z,96746.19
2022-08-17T18:11:51.376Z,96740.78
2022-08-17T18:22:02.818Z,96749.09
2022-08-17T18:32:32.333Z,96752.97
2022-08-17T18:42:33.964Z,96762.41
2022-08-17T18:52:35.429Z,96761.59
2022-08-17T19:02:56.088Z,96770.03
2022-08-17T19:13:12.445Z,96769.03
2022-08-17T19:23:23.724Z,96764.00
2022-08-17T19:33:26.124Z,96748.53
2022-08-17T19:43:50.563Z,96748.94
2022-08-17T19:54:09.155Z,96768.75
2022-08-17T20:04:32.469Z,96781.97
2022-08-17T20:14:58.372Z,96790.50
2022-08-17T20:25:18.454Z,96810.66
2022-08-17T20:35:53.076Z,96808.34
2022-08-17T20:46:06.674Z,96785.09
2022-08-17T20:56:08.180Z,96778.50
2022-08-17T21:06:17.502Z,96756.00
2022-08-17T21:16:41.191Z,96777.69
2022-08-17T21:27:00.916Z,96753.28
2022-08-17T21:37:23.688Z,96773.44
2022-08-17T21:47:28.009Z,96781.56
2022-08-17T21:57:30.788Z,96786.22
2022-08-17T22:07:39.435Z,96798.25
2022-08-17T22:17:46.589Z,96815.66
2022-08-17T22:27:54.935Z,96825.72
2022-08-17T22:37:57.378Z,96882.91
2022-08-17T22:48:02.007Z,96907.50
2022-08-17T22:58:33.383Z,96927.34
2022-08-17T23:08:44.008Z,97012.06
2022-08-17T23:18:46.226Z,97036.34
2022-08-17T23:28:47.803Z,97060.53
2022-08-17T23:38:49.360Z,97089.41
2022-08-17T23:48:53.428Z,97111.56
2022-08-17T23:58:55.848Z,97104.06
